Time;durP1;ratioP1;P1;durP2;ratioP2;P2;SDS_P1;SDS_P2;PMS_P1;PMS_P2;Temp;Humidity;BMP_temperature;BMP_pressure;BME280_temperature;BME280_humidity;BME280_pressure;Samples;Min_cycle;Max_cycle;Signal;HPM_P1;HPM_P2
2020/12/26 00:01:35;;;;;;;13.57;6.35;;;3.20;99.90;;;;;;5062261;28;20070;-67
2020/12/26 00:04:00;;;;;;;16.88;8.10;;;3.30;99.90;;;;;;5062011;28;20103;-67
2020/12/26 00:06:26;;;;;;;16.45;7.22;;;3.30;99.90;;;;;;5069822;28;20111;-67
2020/12/26 00:08:51;;;;;;;11.00;7.15;;;3.30;99.90;;;;;;5063064;28;20029;-68
2020/12/26 00:11:19;;;;;;;16.42;7.65;;;3.30;99.90;;;;;;5061069;28;20077;-67
2020/12/26 00:13:51;;;;;;;16.38;6.13;;;3.30;99.90;;;;;;5069914;28;20047;-68
2020/12/26 00:16:18;;;;;;;14.88;5.95;;;3.30;99.90;;;;;;5059761;28;20029;-67
2020/12/26 00:18:44;;;;;;;11.32;6.45;;;3.40;99.90;;;;;;5068732;28;20488;-68
2020/12/26 00:21:14;;;;;;;15.85;6.30;;;3.40;99.90;;;;;;5059370;28;20028;-67
2020/12/26 00:23:40;;;;;;;12.52;6.40;;;3.40;99.90;;;;;;5059686;28;20028;-66
2020/12/26 00:26:06;;;;;;;9.10;5.60;;;3.40;99.90;;;;;;5068963;28;20049;-65
2020/12/26 00:28:32;;;;;;;15.52;5.68;;;3.40;99.90;;;;;;5067254;28;20036;-67
2020/12/26 00:30:58;;;;;;;8.18;4.70;;;3.50;99.90;;;;;;5067692;28;20101;-66
2020/12/26 00:33:24;;;;;;;10.13;5.10;;;3.50;99.90;;;;;;5068917;28;20504;-67
2020/12/26 00:35:50;;;;;;;11.68;4.68;;;3.50;99.90;;;;;;5062126;28;20043;-67
2020/12/26 00:38:15;;;;;;;9.77;3.92;;;3.60;99.90;;;;;;5060304;28;20116;-67
2020/12/26 00:40:42;;;;;;;7.53;3.58;;;3.70;99.90;;;;;;5067003;28;20043;-67
2020/12/26 00:43:07;;;;;;;10.90;3.47;;;3.80;99.90;;;;;;5059484;28;20036;-67
2020/12/26 00:45:33;;;;;;;4.22;2.90;;;3.70;99.90;;;;;;5070871;28;20033;-67
2020/12/26 00:47:59;;;;;;;5.47;2.72;;;3.70;99.90;;;;;;5062677;28;20056;-68
2020/12/26 00:50:25;;;;;;;7.82;3.05;;;3.70;99.90;;;;;;5056058;28;20124;-67
2020/12/26 00:52:50;;;;;;;4.18;2.75;;;3.70;99.90;;;;;;5065827;28;20108;-66
2020/12/26 00:55:16;;;;;;;3.83;2.47;;;3.70;99.90;;;;;;5061115;28;20040;-66
2020/12/26 00:57:42;;;;;;;8.55;4.07;;;3.60;99.90;;;;;;5064977;28;20025;-66
2020/12/26 01:00:08;;;;;;;6.55;3.67;;;3.60;99.90;;;;;;5068899;28;20032;-67
2020/12/26 01:02:34;;;;;;;5.25;2.90;;;3.60;99.90;;;;;;5065536;28;20111;-66
2020/12/26 01:04:59;;;;;;;9.95;3.78;;;3.60;99.90;;;;;;5057837;28;20091;-66
2020/12/26 01:07:25;;;;;;;7.55;3.72;;;3.60;99.90;;;;;;5056138;28;20434;-66
2020/12/26 01:09:51;;;;;;;5.88;3.05;;;3.60;99.90;;;;;;5064143;28;20115;-66
2020/12/26 01:12:16;;;;;;;3.22;2.53;;;3.60;99.90;;;;;;5062642;28;20115;-66
2020/12/26 01:14:42;;;;;;;3.45;1.92;;;3.60;99.90;;;;;;5068621;28;20053;-67
2020/12/26 01:17:09;;;;;;;4.60;2.30;;;3.60;99.90;;;;;;5067579;28;20720;-66
2020/12/26 01:19:34;;;;;;;5.15;2.47;;;3.60;99.90;;;;;;5061985;28;20095;-66
2020/12/26 01:22:00;;;;;;;5.25;3.33;;;3.60;99.90;;;;;;5067929;28;20035;-66
2020/12/26 01:24:25;;;;;;;4.45;3.47;;;3.60;99.90;;;;;;5066518;28;20072;-66
2020/12/26 01:26:51;;;;;;;5.22;3.83;;;3.50;99.90;;;;;;5061012;28;20035;-67
2020/12/26 01:29:18;;;;;;;7.03;2.90;;;3.50;99.90;;;;;;5071038;28;20040;-67
2020/12/26 01:31:47;;;;;;;6.20;3.30;;;3.50;99.90;;;;;;5066388;28;20551;-66
2020/12/26 01:34:13;;;;;;;5.60;3.50;;;3.50;99.90;;;;;;5060375;28;20048;-67
2020/12/26 01:36:39;;;;;;;10.85;3.67;;;3.50;99.90;;;;;;5061611;28;20029;-66
2020/12/26 01:39:04;;;;;;;5.75;3.15;;;3.50;99.90;;;;;;5065772;28;20495;-67
2020/12/26 01:41:30;;;;;;;6.00;2.97;;;3.40;99.90;;;;;;5059628;28;20024;-66
2020/12/26 01:44:00;;;;;;;4.25;2.53;;;3.50;99.90;;;;;;5063855;28;20032;-67
2020/12/26 01:46:28;;;;;;;5.68;2.33;;;3.30;99.90;;;;;;5064443;28;20036;-67
2020/12/26 01:48:55;;;;;;;4.75;2.47;;;3.30;99.90;;;;;;5062221;28;20387;-67
2020/12/26 01:51:23;;;;;;;7.78;3.55;;;3.30;99.90;;;;;;5059988;28;20487;-67
2020/12/26 01:53:49;;;;;;;5.43;3.10;;;3.30;99.90;;;;;;5064471;28;20638;-67
2020/12/26 01:56:16;;;;;;;10.85;3.47;;;3.30;99.90;;;;;;5065426;28;20039;-66
2020/12/26 01:58:43;;;;;;;5.38;3.58;;;3.40;99.90;;;;;;5061704;28;20388;-66
2020/12/26 02:01:09;;;;;;;8.20;3.45;;;3.40;99.90;;;;;;5052938;28;20032;-67
2020/12/26 02:03:36;;;;;;;5.30;3.28;;;3.40;99.90;;;;;;5058696;28;20120;-67
2020/12/26 02:06:02;;;;;;;7.32;3.17;;;3.40;99.90;;;;;;5054693;28;20440;-67
2020/12/26 02:08:28;;;;;;;3.50;2.72;;;3.30;99.90;;;;;;5063374;28;20115;-66
2020/12/26 02:10:54;;;;;;;8.93;3.58;;;3.30;99.90;;;;;;5078879;28;20115;-66
2020/12/26 02:13:19;;;;;;;7.93;3.28;;;3.30;99.90;;;;;;5061910;28;20373;-67
2020/12/26 02:15:45;;;;;;;7.93;3.63;;;3.30;99.90;;;;;;5061633;28;20100;-66
2020/12/26 02:18:10;;;;;;;5.88;3.50;;;3.30;99.90;;;;;;5066824;28;20414;-66
2020/12/26 02:20:36;;;;;;;5.10;2.92;;;3.30;99.90;;;;;;5058453;28;20039;-66
2020/12/26 02:23:03;;;;;;;8.60;3.20;;;3.30;99.90;;;;;;5065543;28;20035;-66
2020/12/26 02:25:29;;;;;;;9.07;2.65;;;3.30;99.90;;;;;;5063920;28;20032;-66
2020/12/26 02:27:55;;;;;;;6.63;2.55;;;3.20;99.90;;;;;;5063776;28;20394;-66
2020/12/26 02:30:21;;;;;;;5.88;2.70;;;3.20;99.90;;;;;;5061258;28;20029;-66
2020/12/26 02:32:47;;;;;;;7.60;3.03;;;3.20;99.90;;;;;;5062919;28;20056;-66
2020/12/26 02:35:12;;;;;;;6.55;2.35;;;3.20;99.90;;;;;;5074999;28;20071;-66
2020/12/26 02:37:38;;;;;;;5.65;2.47;;;3.20;99.90;;;;;;5075433;28;20440;-67
2020/12/26 02:40:04;;;;;;;5.85;3.45;;;3.10;99.90;;;;;;5066412;28;20031;-66
2020/12/26 02:42:29;;;;;;;5.65;2.10;;;3.10;99.90;;;;;;5080475;28;20107;-66
2020/12/26 02:44:55;;;;;;;2.42;1.73;;;3.10;99.90;;;;;;5071154;28;20094;-66
2020/12/26 02:47:21;;;;;;;3.70;2.03;;;3.10;99.90;;;;;;5061445;28;20081;-66
2020/12/26 02:49:46;;;;;;;7.50;1.77;;;3.10;99.90;;;;;;5055006;28;20427;-67
2020/12/26 02:52:12;;;;;;;5.95;2.00;;;3.10;99.90;;;;;;5069589;28;20457;-66
2020/12/26 02:54:37;;;;;;;5.45;2.70;;;3.10;99.90;;;;;;5073673;28;20492;-66
2020/12/26 02:57:03;;;;;;;2.72;1.38;;;3.10;99.90;;;;;;5062154;28;20073;-66
2020/12/26 02:59:28;;;;;;;7.55;1.40;;;3.10;99.90;;;;;;5060451;28;20114;-66
2020/12/26 03:01:54;;;;;;;2.67;1.10;;;3.10;99.90;;;;;;5057917;28;20150;-66
2020/12/26 03:04:22;;;;;;;3.08;1.02;;;3.10;99.90;;;;;;5063588;28;20025;-67
2020/12/26 03:06:48;;;;;;;2.58;0.95;;;3.10;99.90;;;;;;5058510;28;20500;-67
2020/12/26 03:09:13;;;;;;;4.63;1.02;;;3.10;99.90;;;;;;5070337;28;20020;-66
2020/12/26 03:11:39;;;;;;;3.90;0.80;;;3.00;99.90;;;;;;5066329;28;20583;-66
2020/12/26 03:14:04;;;;;;;4.90;0.70;;;3.00;99.90;;;;;;5063336;28;20756;-66
2020/12/26 03:16:30;;;;;;;6.25;0.93;;;3.00;99.90;;;;;;5057542;28;20044;-66
2020/12/26 03:18:58;;;;;;;3.25;0.65;;;3.50;99.90;;;;;;5059041;28;20428;-65
2020/12/26 03:21:24;;;;;;;3.67;1.00;;;3.00;99.90;;;;;;5068612;28;20032;-68
2020/12/26 03:23:49;;;;;;;1.27;0.88;;;3.00;99.90;;;;;;5073804;28;20029;-66
2020/12/26 03:26:15;;;;;;;5.82;0.85;;;3.00;99.90;;;;;;5071457;28;20043;-66
2020/12/26 03:28:40;;;;;;;7.55;1.17;;;3.00;99.90;;;;;;5068929;28;20411;-66
2020/12/26 03:31:06;;;;;;;2.30;0.77;;;3.00;99.90;;;;;;5062847;28;20111;-66
2020/12/26 03:33:31;;;;;;;5.82;1.00;;;3.00;99.90;;;;;;5072662;28;20071;-66
2020/12/26 03:35:57;;;;;;;5.63;1.10;;;3.10;99.90;;;;;;5064735;28;20062;-65
2020/12/26 03:38:22;;;;;;;6.03;0.98;;;3.00;99.90;;;;;;5061717;28;20496;-66
2020/12/26 03:40:48;;;;;;;5.85;0.95;;;3.10;99.90;;;;;;5063339;28;20025;-68
2020/12/26 03:43:13;;;;;;;4.50;0.95;;;3.10;99.90;;;;;;5062984;28;20098;-67
2020/12/26 03:45:39;;;;;;;4.82;1.23;;;3.10;99.90;;;;;;5057258;28;20033;-66
2020/12/26 03:48:04;;;;;;;2.05;0.63;;;3.10;99.90;;;;;;5063949;28;20031;-67
2020/12/26 03:50:30;;;;;;;6.38;1.05;;;3.10;99.90;;;;;;5064654;28;20044;-67
2020/12/26 03:52:55;;;;;;;5.82;1.00;;;3.10;99.90;;;;;;5060465;28;20025;-67
2020/12/26 03:55:21;;;;;;;2.40;0.80;;;3.00;99.90;;;;;;5058593;28;20055;-67
2020/12/26 03:57:46;;;;;;;3.78;0.90;;;3.10;99.90;;;;;;5064029;28;20024;-67
2020/12/26 04:00:12;;;;;;;2.70;0.80;;;3.10;99.90;;;;;;5064280;28;20300;-67
2020/12/26 04:02:38;;;;;;;4.80;1.10;;;3.10;99.90;;;;;;5064234;28;20025;-67
2020/12/26 04:05:03;;;;;;;2.35;0.70;;;3.10;99.90;;;;;;5066037;28;20035;-67
2020/12/26 04:07:29;;;;;;;2.67;0.70;;;3.20;99.90;;;;;;5059354;28;20037;-67
2020/12/26 04:09:54;;;;;;;14.40;2.95;;;3.50;99.90;;;;;;5059178;28;20048;-67
2020/12/26 04:12:20;;;;;;;4.32;1.20;;;3.20;99.90;;;;;;5058997;28;20021;-67
2020/12/26 04:14:45;;;;;;;7.45;0.93;;;3.30;99.90;;;;;;5059479;28;20133;-67
2020/12/26 04:17:11;;;;;;;4.75;0.88;;;3.30;99.90;;;;;;5064446;28;20028;-67
2020/12/26 04:19:36;;;;;;;6.18;0.63;;;3.30;99.90;;;;;;5071726;28;20043;-67
2020/12/26 04:22:02;;;;;;;2.72;0.90;;;3.40;99.90;;;;;;5082656;28;20027;-67
2020/12/26 04:24:27;;;;;;;2.13;0.57;;;3.40;99.90;;;;;;5073715;28;20360;-66
2020/12/26 04:26:53;;;;;;;5.70;0.90;;;3.40;99.90;;;;;;5069216;28;20083;-67
2020/12/26 04:29:21;;;;;;;3.80;0.70;;;3.50;99.90;;;;;;5073811;28;20025;-66
2020/12/26 04:31:51;;;;;;;4.55;0.70;;;3.50;99.90;;;;;;5075120;28;20031;-67
2020/12/26 04:34:17;;;;;;;2.80;0.90;;;3.50;99.90;;;;;;5064726;28;20051;-67
2020/12/26 04:36:42;;;;;;;3.30;0.70;;;3.60;99.90;;;;;;5071668;28;20406;-66
2020/12/26 04:39:08;;;;;;;4.30;0.60;;;3.60;99.90;;;;;;5061542;28;20021;-67
2020/12/26 04:41:34;;;;;;;7.78;0.75;;;3.60;99.90;;;;;;5072046;28;20099;-67
2020/12/26 04:44:01;;;;;;;7.93;0.90;;;3.60;99.90;;;;;;5067481;28;20032;-68
2020/12/26 04:46:28;;;;;;;3.72;0.73;;;3.60;99.90;;;;;;5069538;28;20020;-66
2020/12/26 04:49:15;;;;;;;4.93;0.98;;;3.60;99.90;;;;;;5070345;28;20124;-68
2020/12/26 04:51:41;;;;;;;2.17;1.00;;;3.50;99.90;;;;;;5075237;28;20039;-67
2020/12/26 04:54:08;;;;;;;2.22;0.90;;;3.60;99.90;;;;;;5077896;28;20036;-67
2020/12/26 04:56:40;;;;;;;7.57;1.05;;;3.50;99.90;;;;;;5087624;28;20422;-66
2020/12/26 04:59:08;;;;;;;4.70;0.95;;;3.60;99.90;;;;;;5065443;28;20052;-66
2020/12/26 05:01:40;;;;;;;5.60;2.08;;;3.50;99.90;;;;;;5066575;28;20032;-67
2020/12/26 05:04:07;;;;;;;1.92;0.70;;;3.50;99.90;;;;;;5066278;28;20047;-67
2020/12/26 05:06:45;;;;;;;2.17;0.77;;;3.60;99.90;;;;;;5059479;28;20578;-67
2020/12/26 05:09:11;;;;;;;2.47;0.65;;;3.60;99.90;;;;;;5062350;28;20024;-66
2020/12/26 05:11:37;;;;;;;6.88;0.98;;;3.50;99.90;;;;;;5066446;28;20059;-65
2020/12/26 05:14:07;;;;;;;2.28;0.70;;;3.50;99.90;;;;;;5069168;28;20047;-68
2020/12/26 05:16:33;;;;;;;9.52;1.20;;;3.60;99.90;;;;;;5064162;28;20552;-67
2020/12/26 05:18:58;;;;;;;2.72;0.70;;;3.60;99.90;;;;;;5065644;28;20044;-67
2020/12/26 05:21:24;;;;;;;6.07;0.85;;;3.60;99.90;;;;;;5082724;28;20413;-67
2020/12/26 05:24:04;;;;;;;6.35;2.17;;;3.70;99.90;;;;;;5064086;28;20056;-66
2020/12/26 05:26:31;;;;;;;5.68;0.85;;;3.70;99.90;;;;;;5059987;28;20040;-68
2020/12/26 05:29:00;;;;;;;2.17;0.63;;;3.60;99.90;;;;;;5065561;28;20112;-68
2020/12/26 05:31:50;;;;;;;8.43;0.80;;;3.70;99.90;;;;;;5070525;28;20042;-66
2020/12/26 05:34:16;;;;;;;6.80;1.00;;;3.70;99.90;;;;;;5060005;28;20051;-66
2020/12/26 05:36:42;;;;;;;5.10;1.05;;;3.70;99.90;;;;;;5071805;28;20024;-67
2020/12/26 05:39:09;;;;;;;2.22;0.85;;;3.70;99.90;;;;;;5058850;28;20067;-66
2020/12/26 05:41:38;;;;;;;5.43;1.25;;;3.70;99.90;;;;;;5064155;28;20020;-66
2020/12/26 05:44:04;;;;;;;6.60;0.70;;;3.70;99.90;;;;;;5058176;28;20116;-66
2020/12/26 05:46:29;;;;;;;1.85;0.60;;;3.70;99.90;;;;;;5074620;28;20528;-67
2020/12/26 05:48:55;;;;;;;3.65;0.90;;;3.80;99.90;;;;;;5065083;28;20453;-66
2020/12/26 05:51:28;;;;;;;5.65;1.10;;;3.80;99.90;;;;;;5072544;28;20041;-66
2020/12/26 05:53:57;;;;;;;5.65;1.00;;;3.80;99.90;;;;;;5065954;28;20547;-66
2020/12/26 05:56:23;;;;;;;8.38;0.80;;;3.80;99.90;;;;;;5065221;28;20242;-67
2020/12/26 05:58:49;;;;;;;2.55;1.10;;;3.80;99.90;;;;;;5055451;28;20031;-66
2020/12/26 06:01:21;;;;;;;3.08;0.80;;;3.80;99.90;;;;;;5061911;28;20028;-67
2020/12/26 06:03:47;;;;;;;4.88;1.05;;;3.80;99.90;;;;;;5071125;28;20085;-67
2020/12/26 06:06:15;;;;;;;5.90;1.15;;;3.80;99.90;;;;;;5066023;28;20024;-67
2020/12/26 06:08:41;;;;;;;1.63;0.77;;;3.80;99.90;;;;;;5073405;28;20476;-66
2020/12/26 06:11:07;;;;;;;9.73;1.13;;;3.80;99.90;;;;;;5077401;28;20055;-66
2020/12/26 06:13:36;;;;;;;3.05;1.13;;;3.90;99.90;;;;;;5075283;28;20598;-67
2020/12/26 06:16:20;;;;;;;6.78;1.35;;;4.00;99.90;;;;;;5060918;28;20127;-66
2020/12/26 06:18:59;;;;;;;3.30;1.20;;;4.00;99.90;;;;;;5058087;28;20031;-66
2020/12/26 06:21:26;;;;;;;1.75;0.80;;;4.10;99.90;;;;;;5070344;28;20039;-65
2020/12/26 06:23:53;;;;;;;7.55;2.08;;;4.10;99.90;;;;;;5067811;28;20107;-66
2020/12/26 06:26:19;;;;;;;3.65;1.50;;;4.00;99.90;;;;;;5065474;28;20041;-66
2020/12/26 06:28:45;;;;;;;10.93;1.20;;;4.10;99.90;;;;;;5075820;28;20034;-65
2020/12/26 06:31:11;;;;;;;4.53;1.08;;;4.20;99.90;;;;;;5066299;28;20132;-66
2020/12/26 06:33:39;;;;;;;2.85;1.50;;;4.10;99.90;;;;;;5054979;28;20500;-66
2020/12/26 06:36:06;;;;;;;5.07;1.60;;;4.10;99.90;;;;;;5066179;28;20028;-66
2020/12/26 06:38:32;;;;;;;4.00;1.10;;;4.20;99.90;;;;;;5057645;28;20128;-66
2020/12/26 06:41:03;;;;;;;4.05;1.38;;;4.20;99.90;;;;;;5056648;28;20017;-66
2020/12/26 06:43:54;;;;;;;6.18;1.50;;;4.20;99.90;;;;;;5058967;28;20120;-66
2020/12/26 06:46:20;;;;;;;4.28;1.58;;;4.20;99.90;;;;;;5060642;28;20112;-66
2020/12/26 06:48:45;;;;;;;4.35;1.90;;;4.20;99.90;;;;;;5066392;28;20096;-66
2020/12/26 06:51:36;;;;;;;8.48;2.13;;;4.20;99.90;;;;;;5077157;28;20044;-66
2020/12/26 06:54:03;;;;;;;4.75;1.40;;;4.20;99.90;;;;;;5073231;28;20036;-65
2020/12/26 06:56:32;;;;;;;6.75;1.88;;;4.20;99.90;;;;;;5076775;28;20028;-66
2020/12/26 06:59:01;;;;;;;9.63;3.28;;;4.20;99.90;;;;;;5088144;28;20085;-66
2020/12/26 07:01:29;;;;;;;8.82;2.92;;;4.20;99.90;;;;;;5070495;28;20020;-66
2020/12/26 07:04:17;;;;;;;4.95;1.90;;;4.20;99.90;;;;;;5077311;28;20029;-66
2020/12/26 07:06:53;;;;;;;10.02;2.53;;;4.20;99.90;;;;;;5079511;28;20039;-65
2020/12/26 07:09:35;;;;;;;4.55;2.20;;;4.20;99.90;;;;;;5082240;28;20056;-65
2020/12/26 07:12:00;;;;;;;6.60;1.88;;;4.30;99.90;;;;;;5076737;28;20029;-65
2020/12/26 07:14:32;;;;;;;5.75;2.45;;;4.30;99.90;;;;;;5076311;28;20043;-65
2020/12/26 07:17:00;;;;;;;4.95;2.33;;;4.30;99.90;;;;;;5080885;28;20112;-66
2020/12/26 07:19:44;;;;;;;9.57;2.85;;;4.40;99.90;;;;;;5072197;28;20064;-65
2020/12/26 07:22:20;;;;;;;5.88;2.60;;;4.30;99.90;;;;;;5083973;28;20113;-66
2020/12/26 07:24:55;;;;;;;5.00;2.55;;;4.40;99.90;;;;;;5077002;28;20441;-66
2020/12/26 07:27:24;;;;;;;7.05;2.75;;;4.30;99.90;;;;;;5077925;28;20111;-66
2020/12/26 07:30:00;;;;;;;5.13;2.10;;;4.40;99.90;;;;;;5071951;28;20036;-66
2020/12/26 07:32:35;;;;;;;4.68;2.33;;;4.40;99.90;;;;;;5085838;28;20031;-66
2020/12/26 07:35:15;;;;;;;8.95;3.55;;;4.40;99.90;;;;;;5083460;28;20031;-66
2020/12/26 07:37:43;;;;;;;3.38;2.53;;;4.50;99.90;;;;;;5073684;28;20123;-66
2020/12/26 07:40:09;;;;;;;4.53;2.53;;;4.50;99.90;;;;;;5085801;28;20081;-66
2020/12/26 07:42:35;;;;;;;6.75;2.80;;;4.40;99.90;;;;;;5072864;28;20025;-66
2020/12/26 07:45:08;;;;;;;8.43;2.50;;;4.50;99.90;;;;;;5075096;28;20043;-66
2020/12/26 07:47:40;;;;;;;8.45;2.60;;;4.40;99.90;;;;;;5065422;28;20032;-65
2020/12/26 07:50:06;;;;;;;7.30;2.75;;;4.50;99.90;;;;;;5052840;28;20118;-65
2020/12/26 07:52:31;;;;;;;6.15;2.72;;;4.50;99.90;;;;;;5068506;28;20029;-65
2020/12/26 07:55:01;;;;;;;4.13;1.98;;;4.60;99.90;;;;;;5063686;28;20504;-65
2020/12/26 07:57:27;;;;;;;4.22;2.28;;;4.60;99.90;;;;;;5056528;28;20021;-65
2020/12/26 07:59:54;;;;;;;6.32;2.05;;;4.60;99.90;;;;;;5053760;28;20124;-65
2020/12/26 08:02:19;;;;;;;6.72;2.38;;;4.60;99.90;;;;;;5057917;28;20025;-66
2020/12/26 08:04:46;;;;;;;7.95;2.38;;;4.70;99.90;;;;;;5052862;28;20468;-67
2020/12/26 08:07:21;;;;;;;3.67;2.45;;;4.70;99.90;;;;;;5069408;28;20040;-66
2020/12/26 08:09:48;;;;;;;8.43;2.40;;;4.70;99.90;;;;;;5064451;28;20044;-66
2020/12/26 08:12:14;;;;;;;2.70;2.10;;;4.70;99.90;;;;;;5071364;28;20032;-66
2020/12/26 08:14:39;;;;;;;8.15;2.20;;;4.70;99.90;;;;;;5078784;28;20040;-66
2020/12/26 08:17:06;;;;;;;8.68;2.95;;;4.70;99.90;;;;;;5071505;28;20016;-67
2020/12/26 08:19:34;;;;;;;9.77;2.40;;;4.70;99.90;;;;;;5066927;28;20025;-65
2020/12/26 08:22:02;;;;;;;3.58;2.45;;;4.70;99.90;;;;;;5083474;28;20024;-67
2020/12/26 08:24:27;;;;;;;8.40;3.25;;;4.70;99.90;;;;;;5082416;28;20031;-67
2020/12/26 08:26:53;;;;;;;11.90;3.92;;;4.70;99.90;;;;;;5081481;28;20039;-65
2020/12/26 08:29:26;;;;;;;4.07;2.65;;;4.80;99.90;;;;;;5077626;28;20451;-65
2020/12/26 08:32:07;;;;;;;4.80;3.08;;;4.80;99.90;;;;;;5076280;28;20057;-65
2020/12/26 08:34:52;;;;;;;5.00;2.80;;;4.80;99.90;;;;;;5064552;28;20179;-67
2020/12/26 08:37:24;;;;;;;11.15;3.95;;;4.90;99.90;;;;;;5060521;28;20033;-65
2020/12/26 08:39:57;;;;;;;6.00;2.72;;;4.90;99.90;;;;;;5066594;28;20025;-66
2020/12/26 08:42:25;;;;;;;7.13;3.30;;;4.90;99.90;;;;;;5068106;28;20039;-65
2020/12/26 08:44:51;;;;;;;4.78;2.53;;;5.00;99.90;;;;;;5067706;28;20166;-65
2020/12/26 08:47:32;;;;;;;3.47;2.90;;;5.00;99.90;;;;;;5065193;28;20052;-66
2020/12/26 08:49:58;;;;;;;4.93;2.85;;;5.00;99.90;;;;;;5065209;28;20055;-66
2020/12/26 08:52:27;;;;;;;6.32;2.38;;;5.10;99.90;;;;;;5088316;28;20388;-65
2020/12/26 08:55:04;;;;;;;5.40;2.58;;;5.10;99.90;;;;;;5083605;28;20376;-65
2020/12/26 08:57:31;;;;;;;6.65;2.85;;;5.10;99.90;;;;;;5078478;28;20038;-65
2020/12/26 09:00:18;;;;;;;3.67;2.40;;;5.10;99.90;;;;;;5062913;28;20039;-66
2020/12/26 09:02:51;;;;;;;7.25;2.30;;;5.20;99.90;;;;;;5065700;28;20169;-66
2020/12/26 09:05:28;;;;;;;5.07;3.42;;;5.20;99.90;;;;;;5060970;28;20017;-66
2020/12/26 09:08:12;;;;;;;5.88;2.42;;;5.20;99.90;;;;;;5056937;28;20056;-67
2020/12/26 09:10:39;;;;;;;7.03;2.13;;;5.20;99.90;;;;;;5054841;28;20017;-68
2020/12/26 09:13:13;;;;;;;7.47;2.25;;;5.20;99.90;;;;;;5062162;28;20056;-68
2020/12/26 09:16:09;;;;;;;3.92;2.05;;;5.20;99.90;;;;;;5068783;28;20020;-69
2020/12/26 09:18:46;;;;;;;6.18;1.73;;;5.20;99.90;;;;;;5057541;28;20036;-66
2020/12/26 09:21:26;;;;;;;6.18;2.72;;;5.30;99.90;;;;;;5062319;28;20724;-66
2020/12/26 09:23:53;;;;;;;2.40;1.55;;;5.40;99.90;;;;;;5066801;28;20028;-66
2020/12/26 09:26:24;;;;;;;4.63;1.73;;;5.40;99.90;;;;;;5057129;28;20385;-67
2020/12/26 09:28:52;;;;;;;5.85;2.03;;;5.40;99.90;;;;;;5071858;28;20032;-67
2020/12/26 09:31:24;;;;;;;4.35;1.85;;;5.30;99.90;;;;;;5088513;28;20039;-66
2020/12/26 09:33:50;;;;;;;2.95;1.70;;;5.30;99.90;;;;;;5064237;28;20047;-66
2020/12/26 09:36:19;;;;;;;3.97;1.73;;;5.30;99.90;;;;;;5065458;28;20066;-66
2020/12/26 09:38:44;;;;;;;5.07;1.80;;;5.30;99.90;;;;;;5066359;28;20103;-66
2020/12/26 09:41:24;;;;;;;5.90;2.08;;;5.30;99.90;;;;;;5069477;28;20111;-66
2020/12/26 09:43:52;;;;;;;5.67;2.50;;;5.30;99.90;;;;;;5067397;28;20484;-66
2020/12/26 09:46:18;;;;;;;8.90;2.60;;;5.30;99.90;;;;;;5088201;28;20067;-65
2020/12/26 09:48:47;;;;;;;4.47;1.95;;;5.30;99.90;;;;;;5061532;28;20031;-65
2020/12/26 09:51:18;;;;;;;4.30;2.40;;;5.30;99.90;;;;;;5058589;28;20040;-66
2020/12/26 09:53:44;;;;;;;5.20;2.17;;;5.30;99.90;;;;;;5074714;28;20043;-66
2020/12/26 09:56:11;;;;;;;4.53;2.85;;;5.30;99.90;;;;;;5074274;28;20031;-66
2020/12/26 09:58:38;;;;;;;4.75;1.83;;;5.30;99.90;;;;;;5082079;28;20079;-67
2020/12/26 10:01:03;;;;;;;6.85;2.78;;;5.40;99.90;;;;;;5080365;28;20056;-66
2020/12/26 10:03:29;;;;;;;5.32;2.03;;;5.40;99.90;;;;;;5075350;28;20059;-66
2020/12/26 10:05:54;;;;;;;7.00;2.70;;;5.40;99.90;;;;;;5075618;28;20511;-66
2020/12/26 10:08:20;;;;;;;6.00;2.85;;;5.40;99.90;;;;;;5077321;28;20074;-68
2020/12/26 10:10:45;;;;;;;5.05;2.10;;;5.50;99.90;;;;;;5070540;28;20021;-65
2020/12/26 10:13:11;;;;;;;11.02;3.17;;;5.50;99.90;;;;;;5060389;28;20017;-65
2020/12/26 10:15:36;;;;;;;7.05;2.90;;;5.60;99.90;;;;;;5063261;28;20505;-65
2020/12/26 10:18:02;;;;;;;6.15;2.75;;;5.60;99.90;;;;;;5062341;28;20428;-66
2020/12/26 10:20:27;;;;;;;6.95;3.10;;;5.60;99.90;;;;;;5057562;28;20036;-66
2020/12/26 10:22:53;;;;;;;6.53;2.45;;;5.60;99.90;;;;;;5068159;28;20069;-65
2020/12/26 10:25:18;;;;;;;10.60;2.92;;;5.60;99.90;;;;;;5081399;28;20012;-65
2020/12/26 10:27:44;;;;;;;10.50;4.32;;;5.60;99.90;;;;;;5072488;28;20020;-65
2020/12/26 10:30:09;;;;;;;13.88;3.00;;;5.60;99.90;;;;;;5074762;28;20480;-65
2020/12/26 10:32:35;;;;;;;5.25;2.58;;;5.60;99.90;;;;;;5067532;28;20032;-65
2020/12/26 10:35:01;;;;;;;4.03;2.63;;;5.60;99.90;;;;;;5067819;28;20052;-66
2020/12/26 10:37:27;;;;;;;8.18;2.63;;;5.70;99.90;;;;;;5063459;28;20383;-66
2020/12/26 10:39:53;;;;;;;6.13;2.67;;;5.70;99.90;;;;;;5064112;28;20028;-65
2020/12/26 10:42:18;;;;;;;3.35;2.08;;;5.70;99.90;;;;;;5070813;28;20043;-66
2020/12/26 10:44:44;;;;;;;6.10;3.15;;;5.70;99.90;;;;;;5070392;28;20064;-66
2020/12/26 10:47:09;;;;;;;5.32;2.15;;;5.70;99.90;;;;;;5066845;28;20380;-65
2020/12/26 10:49:35;;;;;;;8.70;2.60;;;6.00;99.90;;;;;;5077059;28;20496;-65
2020/12/26 10:52:00;;;;;;;4.63;2.75;;;5.70;99.90;;;;;;5077501;28;20055;-65
2020/12/26 10:54:26;;;;;;;9.60;2.33;;;5.70;99.90;;;;;;5076051;28;20043;-65
2020/12/26 10:56:51;;;;;;;5.15;2.42;;;5.70;99.90;;;;;;5086593;28;20020;-65
2020/12/26 10:59:20;;;;;;;6.63;2.88;;;5.60;99.90;;;;;;5070479;28;20047;-65
2020/12/26 11:01:46;;;;;;;4.88;2.45;;;5.70;99.90;;;;;;5067811;28;20085;-65
2020/12/26 11:04:12;;;;;;;6.55;2.30;;;5.70;99.90;;;;;;5072548;28;20052;-67
2020/12/26 11:06:38;;;;;;;5.47;2.33;;;5.70;99.90;;;;;;5087318;28;20020;-65
2020/12/26 11:09:03;;;;;;;9.13;2.70;;;5.70;99.90;;;;;;5075590;28;20040;-66
2020/12/26 11:11:29;;;;;;;6.43;3.10;;;5.70;99.90;;;;;;5073030;28;20025;-67
2020/12/26 11:13:54;;;;;;;10.98;3.08;;;5.70;99.90;;;;;;5081704;28;20036;-66
2020/12/26 11:16:20;;;;;;;6.97;2.97;;;5.80;99.90;;;;;;5077473;28;20016;-66
2020/12/26 11:18:46;;;;;;;5.53;2.97;;;5.80;99.90;;;;;;5081222;28;20028;-67
2020/12/26 11:21:16;;;;;;;8.57;3.03;;;5.80;99.90;;;;;;5077689;28;20047;-68
2020/12/26 11:23:42;;;;;;;8.50;2.97;;;5.80;99.90;;;;;;5074910;28;20048;-67
2020/12/26 11:26:10;;;;;;;10.43;2.80;;;5.90;99.90;;;;;;5061952;28;20024;-67
2020/12/26 11:28:36;;;;;;;5.32;2.60;;;5.90;99.90;;;;;;5087599;28;20020;-66
2020/12/26 11:31:02;;;;;;;4.65;2.75;;;6.00;99.90;;;;;;5085004;28;20074;-67
2020/12/26 11:33:27;;;;;;;4.38;2.42;;;6.00;99.90;;;;;;5075975;28;20494;-66
2020/12/26 11:35:53;;;;;;;5.78;2.30;;;6.10;99.90;;;;;;5076159;28;20029;-66
2020/12/26 11:38:19;;;;;;;6.63;3.38;;;6.00;99.90;;;;;;5079686;28;20035;-66
2020/12/26 11:40:44;;;;;;;8.40;2.95;;;6.10;99.90;;;;;;5089680;28;20028;-67
2020/12/26 11:43:10;;;;;;;7.05;3.75;;;6.10;99.90;;;;;;5069489;28;20032;-66
2020/12/26 11:45:35;;;;;;;5.40;2.67;;;6.10;99.90;;;;;;5062054;28;20036;-66
2020/12/26 11:48:01;;;;;;;4.93;2.67;;;6.20;99.90;;;;;;5064371;28;20694;-67
2020/12/26 11:50:26;;;;;;;5.15;2.72;;;6.20;99.90;;;;;;5061743;28;20041;-68
2020/12/26 11:52:52;;;;;;;5.22;2.83;;;6.20;99.90;;;;;;5059190;28;20052;-67
2020/12/26 11:55:18;;;;;;;7.22;3.55;;;6.30;99.90;;;;;;5064548;28;20068;-67
2020/12/26 11:57:44;;;;;;;7.50;3.13;;;6.30;99.90;;;;;;5064210;28;20059;-67
2020/12/26 12:00:10;;;;;;;4.35;2.65;;;6.30;99.90;;;;;;5093282;28;20169;-67
2020/12/26 12:02:35;;;;;;;9.77;4.38;;;6.30;99.90;;;;;;5080156;28;20028;-68
2020/12/26 12:05:01;;;;;;;8.18;3.88;;;6.30;99.90;;;;;;5088595;28;20069;-69
2020/12/26 12:07:27;;;;;;;5.35;2.50;;;6.30;99.90;;;;;;5093886;28;20019;-67
2020/12/26 12:09:52;;;;;;;6.68;2.60;;;6.40;99.90;;;;;;5084648;28;20103;-67
2020/12/26 12:12:18;;;;;;;5.47;2.55;;;6.30;99.90;;;;;;5091101;28;20102;-67
2020/12/26 12:14:43;;;;;;;4.28;3.00;;;6.30;99.90;;;;;;5071405;28;20040;-67
2020/12/26 12:17:09;;;;;;;5.85;2.75;;;6.30;99.90;;;;;;5069267;28;20033;-67
2020/12/26 12:19:34;;;;;;;8.68;3.30;;;6.30;99.90;;;;;;5056455;28;20445;-67
2020/12/26 12:22:00;;;;;;;5.55;2.80;;;6.30;99.90;;;;;;5070195;28;20016;-68
2020/12/26 12:24:25;;;;;;;7.88;3.17;;;6.30;99.90;;;;;;5064596;28;20052;-68
2020/12/26 12:26:51;;;;;;;6.03;3.53;;;6.30;99.90;;;;;;5062337;28;20029;-68
2020/12/26 12:29:16;;;;;;;27.77;10.63;;;6.30;99.90;;;;;;5062998;28;20501;-67
2020/12/26 12:31:42;;;;;;;4.75;2.88;;;6.40;99.90;;;;;;5068023;28;20110;-67
2020/12/26 12:34:07;;;;;;;6.47;3.08;;;6.30;99.90;;;;;;5058578;28;20038;-67
2020/12/26 12:36:34;;;;;;;3.80;2.70;;;6.30;99.90;;;;;;5057105;28;20043;-68
2020/12/26 12:38:59;;;;;;;6.40;2.63;;;6.40;99.90;;;;;;5060287;28;20078;-67
2020/12/26 12:41:25;;;;;;;4.30;2.78;;;6.40;99.90;;;;;;5060054;28;20028;-67
2020/12/26 12:43:51;;;;;;;3.33;2.50;;;6.40;99.90;;;;;;5059963;28;20429;-67
2020/12/26 12:46:16;;;;;;;6.53;2.92;;;6.40;99.90;;;;;;5053277;28;20429;-67
2020/12/26 12:48:42;;;;;;;7.53;3.20;;;6.40;99.90;;;;;;5061264;28;20055;-67
2020/12/26 12:51:08;;;;;;;6.65;2.42;;;6.50;99.90;;;;;;5060990;28;20053;-67
2020/12/26 12:53:33;;;;;;;3.97;2.55;;;6.40;99.90;;;;;;5061321;28;20043;-67
2020/12/26 12:55:59;;;;;;;5.65;3.25;;;6.40;99.90;;;;;;5066140;28;20024;-67
2020/12/26 12:58:25;;;;;;;7.10;3.05;;;6.40;99.90;;;;;;5058755;28;20025;-66